»·PEaware :: N6750H KPSP-KVGT

N6750H :: KPSP-KVGT

FLIGHT INFORMATION

Flight Status: Arrived
Operator: Privately registered:
United States
More flights under this callsign
Pilot: Yoel G. (22311)
Aircraft: Unknown
(DA62)
More flights by this aircraft type
Origin: KPSP Palm Springs Intl
United States
Destination: KVGT North Las Vegas
United States
More flights between these airports :: More routes between these airports
Route: +CATH1 PSP V370 TNP V538 LAS
File this flight plan on PilotEdge
Remarks:
Altitude:
(Current/Filed)
14,000ft
Speed:
(Current/Filed)
201kts
Departed: 03-Jan-19 09:13 AM
Arrived: 03-Jan-19 10:20 AM
Distance/Time
Traveled:
157nm/1:07
Distance/Time
To Go:
Arrived

Flight Plot

Page will automatically refresh every two minutes.

Flight plan parsing failed; only flown route is shown


Map Options




Map Legend


Flown Route
Filed Route
Departure Airport
Arrival Airport
Navaid (VOR, NDB)
Fix

Horizontal Profiles

Position Reports

Time Latitude Longitude Heading Altitude Ground
Speed
03-Jan-19 08:47 33.823727 -116.497874 227 397ft 0kts
03-Jan-19 08:48 33.823727 -116.497874 227 397ft 0kts
03-Jan-19 08:49 33.823727 -116.497874 227 397ft 0kts
03-Jan-19 08:50 33.823727 -116.497874 227 397ft 0kts
03-Jan-19 08:51 33.823727 -116.497874 227 397ft 0kts
03-Jan-19 08:52 33.823727 -116.497874 227 397ft 0kts
03-Jan-19 08:53 33.823727 -116.497874 227 397ft 0kts
03-Jan-19 08:54 33.823727 -116.497874 227 397ft 0kts
03-Jan-19 08:55 33.823727 -116.497874 227 397ft 0kts
03-Jan-19 08:56 33.823727 -116.497874 227 397ft 0kts
03-Jan-19 08:57 33.823727 -116.497874 227 397ft 0kts
03-Jan-19 08:58 33.823727 -116.497874 227 397ft 0kts
03-Jan-19 08:59 33.823727 -116.497874 227 397ft 0kts
03-Jan-19 09:00 33.823727 -116.497874 227 397ft 0kts
03-Jan-19 09:01 33.823727 -116.497874 227 397ft 0kts
03-Jan-19 09:02 33.823727 -116.497874 227 397ft 0kts
03-Jan-19 09:03 33.823727 -116.497874 227 397ft 0kts
03-Jan-19 09:04 33.823727 -116.497874 227 397ft 0kts
03-Jan-19 09:05 33.823727 -116.497874 227 397ft 0kts
03-Jan-19 09:05 33.823727 -116.497874 227 397ft 0kts
03-Jan-19 09:07 33.823727 -116.497874 227 397ft 0kts
03-Jan-19 09:08 33.823727 -116.497874 227 397ft 0kts
03-Jan-19 09:08 33.823727 -116.497874 227 397ft 0kts
03-Jan-19 09:09 33.824130 -116.498648 324 400ft 7kts
03-Jan-19 09:10 33.824644 -116.499604 196 402ft 0kts
03-Jan-19 09:12 33.824644 -116.499604 196 402ft 0kts
03-Jan-19 09:12 33.827654 -116.502978 322 415ft 80kts
03-Jan-19 09:13 33.849002 -116.523390 316 1687ft 91kts
03-Jan-19 09:14 33.868194 -116.542315 318 3135ft 90kts
03-Jan-19 09:15 33.887824 -116.561224 318 4460ft 92kts
03-Jan-19 09:16 33.904236 -116.547520 89 5770ft 99kts
03-Jan-19 09:17 33.910854 -116.515404 69 7064ft 101kts
03-Jan-19 09:18 33.919740 -116.483252 69 8342ft 103kts
03-Jan-19 09:19 33.928759 -116.450354 69 9609ft 105kts
03-Jan-19 09:20 33.937926 -116.416803 68 10864ft 106kts
03-Jan-19 09:21 33.947215 -116.382748 68 12100ft 108kts
03-Jan-19 09:22 33.957081 -116.346649 69 13013ft 137kts
03-Jan-19 09:23 33.971476 -116.293778 70 13007ft 182kts
03-Jan-19 09:24 33.987673 -116.234006 70 13008ft 191kts
03-Jan-19 09:25 34.004275 -116.172706 70 12954ft 194kts
03-Jan-19 09:26 34.020881 -116.111227 70 12959ft 192kts
03-Jan-19 09:27 34.037442 -116.049793 70 12965ft 192kts
03-Jan-19 09:28 34.053906 -115.988580 70 12971ft 192kts
03-Jan-19 09:29 34.070390 -115.927163 70 12976ft 192kts
03-Jan-19 09:30 34.086805 -115.865860 70 12980ft 192kts
03-Jan-19 09:31 34.103290 -115.804161 70 12981ft 192kts
03-Jan-19 09:32 34.130420 -115.750800 42 12982ft 189kts
03-Jan-19 09:33 34.168651 -115.706997 40 12982ft 189kts
03-Jan-19 09:34 34.207216 -115.663564 40 12982ft 189kts
03-Jan-19 09:35 34.245836 -115.620090 40 12982ft 189kts
03-Jan-19 09:36 34.284475 -115.576544 40 12982ft 189kts
03-Jan-19 09:37 34.323270 -115.533479 29 12972ft 189kts
03-Jan-19 09:38 34.371519 -115.510122 17 12982ft 187kts
03-Jan-19 09:39 34.420572 -115.488643 17 12982ft 187kts
03-Jan-19 09:40 34.469562 -115.467306 17 12982ft 187kts
03-Jan-19 09:41 34.518437 -115.446006 17 12982ft 187kts
03-Jan-19 09:42 34.567427 -115.424636 17 12979ft 187kts
03-Jan-19 09:43 34.616432 -115.403229 17 12967ft 187kts
03-Jan-19 09:44 34.665525 -115.381755 17 12956ft 188kts
03-Jan-19 09:45 34.714637 -115.360245 17 12947ft 188kts
03-Jan-19 09:46 34.763906 -115.338640 17 12944ft 187kts
03-Jan-19 09:47 34.812689 -115.317270 17 12981ft 187kts
03-Jan-19 09:48 34.861598 -115.295736 18 12980ft 187kts
03-Jan-19 09:49 34.910525 -115.274171 17 12980ft 187kts
03-Jan-19 09:50 34.959241 -115.252698 17 12980ft 186kts
03-Jan-19 09:51 35.007694 -115.231316 18 12980ft 184kts
03-Jan-19 09:52 35.055699 -115.210104 18 12979ft 183kts
03-Jan-19 09:53 35.103399 -115.188986 18 12980ft 183kts
03-Jan-19 09:54 35.152797 -115.176760 0 12982ft 182kts
03-Jan-19 09:55 35.203429 -115.175482 359 12982ft 182kts
03-Jan-19 09:56 35.253984 -115.174561 359 12984ft 182kts
03-Jan-19 09:57 35.304549 -115.173676 359 12986ft 182kts
03-Jan-19 09:58 35.361081 -115.172721 359 11548ft 214kts
03-Jan-19 09:59 35.419896 -115.171687 359 10079ft 212kts
03-Jan-19 10:00 35.473968 -115.170731 359 9997ft 184kts
03-Jan-19 10:01 35.524389 -115.169853 359 10009ft 179kts
03-Jan-19 10:02 35.574311 -115.168982 359 10009ft 179kts
03-Jan-19 10:03 35.624159 -115.168108 359 10009ft 179kts
03-Jan-19 10:04 35.673777 -115.167408 358 10009ft 179kts
03-Jan-19 10:05 35.723442 -115.165307 3 9932ft 176kts
03-Jan-19 10:06 35.778010 -115.158834 3 8277ft 210kts
03-Jan-19 10:07 35.832185 -115.151992 3 6250ft 206kts
03-Jan-19 10:08 35.885794 -115.145153 3 6007ft 182kts
03-Jan-19 10:09 35.935343 -115.138671 3 6010ft 177kts
03-Jan-19 10:10 35.984167 -115.132296 3 6015ft 176kts
03-Jan-19 10:11 36.032873 -115.126013 3 6018ft 175kts
03-Jan-19 10:12 36.081421 -115.119993 3 6016ft 175kts
03-Jan-19 10:13 36.126829 -115.134527 340 4418ft 165kts
03-Jan-19 10:14 36.150590 -115.169669 309 4046ft 158kts
03-Jan-19 10:15 36.184164 -115.211395 317 3731ft 168kts
03-Jan-19 10:16 36.219600 -115.246224 326 3521ft 150kts
03-Jan-19 10:17 36.238404 -115.229623 140 3142ft 100kts
03-Jan-19 10:18 36.219193 -115.208432 132 2347ft 85kts
03-Jan-19 10:19 36.208380 -115.194919 196 2185ft 7kts
03-Jan-19 10:20 36.208054 -115.196138 314 2187ft 12kts
03-Jan-19 10:21 36.209102 -115.198576 223 2196ft 6kts
03-Jan-19 10:22 36.208716 -115.198033 90 2194ft 0kts
03-Jan-19 10:23 36.208717 -115.197969 89 2194ft 4kts
03-Jan-19 10:24 36.208147 -115.197012 311 2190ft 6kts
03-Jan-19 10:25 36.208594 -115.197321 0 2191ft 0kts
03-Jan-19 10:26 36.208603 -115.197321 0 2191ft 0kts

Navigation Log

Ident Type
Flight plan parsing failed, navigation log unavailable